sensor_id;sensor_type;location;lat;lon;timestamp;temperature;humidity
7902;DHT22;3996;49.674;10.716;2023-03-14T00:01:28;10.20;80.10
7902;DHT22;3996;49.674;10.716;2023-03-14T00:03:53;10.20;80.70
7902;DHT22;3996;49.674;10.716;2023-03-14T00:06:19;10.20;81.00
7902;DHT22;3996;49.674;10.716;2023-03-14T00:08:45;10.20;80.30
7902;DHT22;3996;49.674;10.716;2023-03-14T00:11:12;10.20;80.60
7902;DHT22;3996;49.674;10.716;2023-03-14T00:13:38;10.20;80.80
7902;DHT22;3996;49.674;10.716;2023-03-14T00:16:07;10.20;80.10
7902;DHT22;3996;49.674;10.716;2023-03-14T00:18:33;10.30;78.10
7902;DHT22;3996;49.674;10.716;2023-03-14T00:21:00;10.40;77.90
7902;DHT22;3996;49.674;10.716;2023-03-14T00:23:28;10.40;77.80
7902;DHT22;3996;49.674;10.716;2023-03-14T00:25:59;10.40;77.40
7902;DHT22;3996;49.674;10.716;2023-03-14T00:28:25;10.40;77.50
7902;DHT22;3996;49.674;10.716;2023-03-14T00:30:50;10.40;75.80
7902;DHT22;3996;49.674;10.716;2023-03-14T00:33:16;10.40;76.10
7902;DHT22;3996;49.674;10.716;2023-03-14T00:35:41;10.40;75.40
7902;DHT22;3996;49.674;10.716;2023-03-14T00:38:06;10.40;76.10
7902;DHT22;3996;49.674;10.716;2023-03-14T00:40:32;10.40;76.10
7902;DHT22;3996;49.674;10.716;2023-03-14T00:42:57;10.40;76.10
7902;DHT22;3996;49.674;10.716;2023-03-14T00:45:23;10.40;75.20
7902;DHT22;3996;49.674;10.716;2023-03-14T00:47:49;10.50;74.50
7902;DHT22;3996;49.674;10.716;2023-03-14T00:50:14;10.40;75.10
7902;DHT22;3996;49.674;10.716;2023-03-14T00:52:40;10.50;74.50
7902;DHT22;3996;49.674;10.716;2023-03-14T00:55:05;10.40;74.60
7902;DHT22;3996;49.674;10.716;2023-03-14T00:57:31;10.40;74.80
7902;DHT22;3996;49.674;10.716;2023-03-14T00:59:56;10.40;73.20
7902;DHT22;3996;49.674;10.716;2023-03-14T01:02:22;10.40;74.00
7902;DHT22;3996;49.674;10.716;2023-03-14T01:04:48;10.40;72.20
7902;DHT22;3996;49.674;10.716;2023-03-14T01:07:14;10.50;73.10
7902;DHT22;3996;49.674;10.716;2023-03-14T01:09:39;10.50;72.20
7902;DHT22;3996;49.674;10.716;2023-03-14T01:12:04;10.40;72.00
7902;DHT22;3996;49.674;10.716;2023-03-14T01:14:30;10.40;71.60
7902;DHT22;3996;49.674;10.716;2023-03-14T01:16:55;10.40;70.50
7902;DHT22;3996;49.674;10.716;2023-03-14T01:19:26;10.40;70.60
7902;DHT22;3996;49.674;10.716;2023-03-14T01:21:52;10.40;71.10
7902;DHT22;3996;49.674;10.716;2023-03-14T01:24:17;10.30;70.60
7902;DHT22;3996;49.674;10.716;2023-03-14T01:26:43;10.30;71.10
7902;DHT22;3996;49.674;10.716;2023-03-14T01:29:08;10.30;70.70
7902;DHT22;3996;49.674;10.716;2023-03-14T01:31:34;10.40;70.00
7902;DHT22;3996;49.674;10.716;2023-03-14T01:33:59;10.40;69.10
7902;DHT22;3996;49.674;10.716;2023-03-14T01:36:25;10.50;68.70
7902;DHT22;3996;49.674;10.716;2023-03-14T01:38:50;10.50;68.60
7902;DHT22;3996;49.674;10.716;2023-03-14T01:41:22;10.50;67.60
7902;DHT22;3996;49.674;10.716;2023-03-14T01:43:48;10.60;67.80
7902;DHT22;3996;49.674;10.716;2023-03-14T01:46:32;10.50;68.10
7902;DHT22;3996;49.674;10.716;2023-03-14T01:49:03;10.50;68.40
7902;DHT22;3996;49.674;10.716;2023-03-14T01:54:37;10.50;68.50
7902;DHT22;3996;49.674;10.716;2023-03-14T01:59:39;10.60;67.40
7902;DHT22;3996;49.674;10.716;2023-03-14T02:02:06;10.60;68.70
7902;DHT22;3996;49.674;10.716;2023-03-14T02:04:35;10.50;69.60
7902;DHT22;3996;49.674;10.716;2023-03-14T02:07:05;10.50;69.00
7902;DHT22;3996;49.674;10.716;2023-03-14T02:09:31;10.50;69.30
7902;DHT22;3996;49.674;10.716;2023-03-14T02:11:56;10.40;70.00
7902;DHT22;3996;49.674;10.716;2023-03-14T02:14:28;10.40;69.70
7902;DHT22;3996;49.674;10.716;2023-03-14T02:16:54;10.50;69.10
7902;DHT22;3996;49.674;10.716;2023-03-14T02:19:21;10.50;68.60
7902;DHT22;3996;49.674;10.716;2023-03-14T02:22:02;10.40;69.10
7902;DHT22;3996;49.674;10.716;2023-03-14T02:24:38;10.50;69.00
7902;DHT22;3996;49.674;10.716;2023-03-14T02:27:14;10.40;69.80
7902;DHT22;3996;49.674;10.716;2023-03-14T02:29:53;10.40;69.20
7902;DHT22;3996;49.674;10.716;2023-03-14T02:32:20;10.40;69.60
7902;DHT22;3996;49.674;10.716;2023-03-14T02:34:48;10.40;69.80
7902;DHT22;3996;49.674;10.716;2023-03-14T02:37:14;10.40;70.00
7902;DHT22;3996;49.674;10.716;2023-03-14T02:39:42;10.30;70.20
7902;DHT22;3996;49.674;10.716;2023-03-14T02:42:09;10.30;71.10
7902;DHT22;3996;49.674;10.716;2023-03-14T02:44:35;10.30;70.70
7902;DHT22;3996;49.674;10.716;2023-03-14T02:47:01;10.30;71.10
7902;DHT22;3996;49.674;10.716;2023-03-14T02:49:27;10.30;71.10
7902;DHT22;3996;49.674;10.716;2023-03-14T02:51:55;10.30;71.00
7902;DHT22;3996;49.674;10.716;2023-03-14T02:54:20;10.30;71.60
7902;DHT22;3996;49.674;10.716;2023-03-14T02:56:46;10.30;71.80
7902;DHT22;3996;49.674;10.716;2023-03-14T02:59:12;10.30;71.50
7902;DHT22;3996;49.674;10.716;2023-03-14T03:01:37;10.30;71.50
7902;DHT22;3996;49.674;10.716;2023-03-14T03:04:02;10.30;71.30
7902;DHT22;3996;49.674;10.716;2023-03-14T03:06:28;10.30;71.40
7902;DHT22;3996;49.674;10.716;2023-03-14T03:08:54;10.20;71.70
7902;DHT22;3996;49.674;10.716;2023-03-14T03:11:19;10.30;71.40
7902;DHT22;3996;49.674;10.716;2023-03-14T03:13:45;10.30;71.10
7902;DHT22;3996;49.674;10.716;2023-03-14T03:16:10;10.30;71.50
7902;DHT22;3996;49.674;10.716;2023-03-14T03:18:38;10.30;71.20
7902;DHT22;3996;49.674;10.716;2023-03-14T03:21:04;10.30;71.40
7902;DHT22;3996;49.674;10.716;2023-03-14T03:23:30;10.20;72.00
7902;DHT22;3996;49.674;10.716;2023-03-14T03:25:56;10.20;72.10
7902;DHT22;3996;49.674;10.716;2023-03-14T03:28:21;10.20;72.60
7902;DHT22;3996;49.674;10.716;2023-03-14T03:30:47;10.20;72.10
7902;DHT22;3996;49.674;10.716;2023-03-14T03:33:12;10.20;72.00
7902;DHT22;3996;49.674;10.716;2023-03-14T03:35:42;10.10;72.10
7902;DHT22;3996;49.674;10.716;2023-03-14T03:38:07;10.20;71.80
7902;DHT22;3996;49.674;10.716;2023-03-14T03:40:33;10.10;71.60
7902;DHT22;3996;49.674;10.716;2023-03-14T03:42:59;10.10;72.10
7902;DHT22;3996;49.674;10.716;2023-03-14T03:45:24;10.10;71.90
7902;DHT22;3996;49.674;10.716;2023-03-14T03:47:50;10.10;71.90
7902;DHT22;3996;49.674;10.716;2023-03-14T03:50:15;10.10;72.00
7902;DHT22;3996;49.674;10.716;2023-03-14T03:52:41;10.00;71.90
7902;DHT22;3996;49.674;10.716;2023-03-14T03:55:06;10.00;71.00
7902;DHT22;3996;49.674;10.716;2023-03-14T03:57:32;10.10;71.30
7902;DHT22;3996;49.674;10.716;2023-03-14T03:59:57;10.00;71.30
7902;DHT22;3996;49.674;10.716;2023-03-14T04:02:23;10.00;71.50
7902;DHT22;3996;49.674;10.716;2023-03-14T04:04:48;10.00;71.50
7902;DHT22;3996;49.674;10.716;2023-03-14T04:07:14;10.00;71.10
7902;DHT22;3996;49.674;10.716;2023-03-14T04:09:40;10.00;70.40
7902;DHT22;3996;49.674;10.716;2023-03-14T04:12:05;10.00;70.80
7902;DHT22;3996;49.674;10.716;2023-03-14T04:14:31;10.00;70.50
7902;DHT22;3996;49.674;10.716;2023-03-14T04:16:56;10.00;70.40
7902;DHT22;3996;49.674;10.716;2023-03-14T04:19:21;10.00;70.10
7902;DHT22;3996;49.674;10.716;2023-03-14T04:21:47;10.00;69.90
7902;DHT22;3996;49.674;10.716;2023-03-14T04:24:12;10.00;70.40
7902;DHT22;3996;49.674;10.716;2023-03-14T04:26:38;10.00;70.00
7902;DHT22;3996;49.674;10.716;2023-03-14T04:29:03;9.90;71.30
7902;DHT22;3996;49.674;10.716;2023-03-14T04:31:29;9.90;71.20
7902;DHT22;3996;49.674;10.716;2023-03-14T04:33:54;9.90;70.90
7902;DHT22;3996;49.674;10.716;2023-03-14T04:36:20;10.00;69.70
7902;DHT22;3996;49.674;10.716;2023-03-14T04:38:45;10.00;69.10
7902;DHT22;3996;49.674;10.716;2023-03-14T04:41:11;10.00;68.20
7902;DHT22;3996;49.674;10.716;2023-03-14T04:43:36;10.00;68.40
7902;DHT22;3996;49.674;10.716;2023-03-14T04:46:02;10.00;68.60
7902;DHT22;3996;49.674;10.716;2023-03-14T04:48:27;10.00;69.10
7902;DHT22;3996;49.674;10.716;2023-03-14T04:50:53;10.00;68.30
7902;DHT22;3996;49.674;10.716;2023-03-14T04:53:18;10.00;67.40
7902;DHT22;3996;49.674;10.716;2023-03-14T04:55:54;9.90;68.80
7902;DHT22;3996;49.674;10.716;2023-03-14T04:58:20;9.90;69.00
7902;DHT22;3996;49.674;10.716;2023-03-14T05:00:46;9.90;67.70
7902;DHT22;3996;49.674;10.716;2023-03-14T05:03:11;10.00;66.60
7902;DHT22;3996;49.674;10.716;2023-03-14T05:05:37;10.00;65.70
7902;DHT22;3996;49.674;10.716;2023-03-14T05:08:02;10.00;65.60
7902;DHT22;3996;49.674;10.716;2023-03-14T05:10:28;10.00;64.60
7902;DHT22;3996;49.674;10.716;2023-03-14T05:12:53;10.00;64.90
7902;DHT22;3996;49.674;10.716;2023-03-14T05:15:19;10.00;64.20
7902;DHT22;3996;49.674;10.716;2023-03-14T05:17:44;10.10;63.60
7902;DHT22;3996;49.674;10.716;2023-03-14T05:20:11;10.10;63.60
7902;DHT22;3996;49.674;10.716;2023-03-14T05:22:38;10.00;64.10
7902;DHT22;3996;49.674;10.716;2023-03-14T05:25:04;10.00;64.10
7902;DHT22;3996;49.674;10.716;2023-03-14T05:27:29;10.00;64.30
7902;DHT22;3996;49.674;10.716;2023-03-14T05:29:55;9.90;64.70
7902;DHT22;3996;49.674;10.716;2023-03-14T05:32:20;9.90;65.40
7902;DHT22;3996;49.674;10.716;2023-03-14T05:34:46;10.00;63.70
7902;DHT22;3996;49.674;10.716;2023-03-14T05:37:11;9.90;64.00
7902;DHT22;3996;49.674;10.716;2023-03-14T05:39:37;10.00;63.30
7902;DHT22;3996;49.674;10.716;2023-03-14T05:42:02;10.00;63.10
7902;DHT22;3996;49.674;10.716;2023-03-14T05:44:27;10.00;62.80
7902;DHT22;3996;49.674;10.716;2023-03-14T05:46:53;9.90;64.00
7902;DHT22;3996;49.674;10.716;2023-03-14T05:49:18;9.90;64.50
7902;DHT22;3996;49.674;10.716;2023-03-14T05:51:44;9.90;64.80
7902;DHT22;3996;49.674;10.716;2023-03-14T05:54:09;9.80;64.60
7902;DHT22;3996;49.674;10.716;2023-03-14T05:56:35;9.80;64.10
7902;DHT22;3996;49.674;10.716;2023-03-14T05:59:00;9.90;64.00
7902;DHT22;3996;49.674;10.716;2023-03-14T06:01:28;9.90;63.60
7902;DHT22;3996;49.674;10.716;2023-03-14T06:03:54;9.90;63.60
7902;DHT22;3996;49.674;10.716;2023-03-14T06:06:20;9.90;62.70
7902;DHT22;3996;49.674;10.716;2023-03-14T06:08:45;9.90;63.20
7902;DHT22;3996;49.674;10.716;2023-03-14T06:11:11;9.80;62.50
7902;DHT22;3996;49.674;10.716;2023-03-14T06:13:37;9.90;62.60
7902;DHT22;3996;49.674;10.716;2023-03-14T06:16:02;9.90;61.90
7902;DHT22;3996;49.674;10.716;2023-03-14T06:18:28;10.00;60.10
7902;DHT22;3996;49.674;10.716;2023-03-14T06:20:54;10.00;60.20
7902;DHT22;3996;49.674;10.716;2023-03-14T06:23:20;10.00;60.30
7902;DHT22;3996;49.674;10.716;2023-03-14T06:25:46;10.00;60.40
7902;DHT22;3996;49.674;10.716;2023-03-14T06:28:11;10.00;60.40
7902;DHT22;3996;49.674;10.716;2023-03-14T06:30:37;10.00;58.90
7902;DHT22;3996;49.674;10.716;2023-03-14T06:33:02;10.00;59.80
7902;DHT22;3996;49.674;10.716;2023-03-14T06:35:28;10.10;61.40
7902;DHT22;3996;49.674;10.716;2023-03-14T06:37:53;10.20;58.90
7902;DHT22;3996;49.674;10.716;2023-03-14T06:40:19;10.20;58.70
7902;DHT22;3996;49.674;10.716;2023-03-14T06:42:45;10.20;58.20
7902;DHT22;3996;49.674;10.716;2023-03-14T06:45:11;10.10;57.70
7902;DHT22;3996;49.674;10.716;2023-03-14T06:47:36;10.10;57.60
7902;DHT22;3996;49.674;10.716;2023-03-14T06:50:05;10.20;56.90
7902;DHT22;3996;49.674;10.716;2023-03-14T06:52:30;10.20;56.30
7902;DHT22;3996;49.674;10.716;2023-03-14T06:54:56;10.20;55.90
7902;DHT22;3996;49.674;10.716;2023-03-14T06:57:21;10.30;54.50
7902;DHT22;3996;49.674;10.716;2023-03-14T06:59:47;10.30;54.10
7902;DHT22;3996;49.674;10.716;2023-03-14T07:02:13;10.30;53.80
7902;DHT22;3996;49.674;10.716;2023-03-14T07:04:39;10.30;55.30
7902;DHT22;3996;49.674;10.716;2023-03-14T07:07:04;10.30;52.80
7902;DHT22;3996;49.674;10.716;2023-03-14T07:09:31;10.40;51.80
7902;DHT22;3996;49.674;10.716;2023-03-14T07:11:56;10.40;52.00
7902;DHT22;3996;49.674;10.716;2023-03-14T07:14:22;10.50;51.40
7902;DHT22;3996;49.674;10.716;2023-03-14T07:16:47;10.50;51.60
7902;DHT22;3996;49.674;10.716;2023-03-14T07:19:13;10.50;50.80
7902;DHT22;3996;49.674;10.716;2023-03-14T07:21:38;10.50;50.50
7902;DHT22;3996;49.674;10.716;2023-03-14T07:24:04;10.60;51.70
7902;DHT22;3996;49.674;10.716;2023-03-14T07:26:30;10.90;51.40
7902;DHT22;3996;49.674;10.716;2023-03-14T07:28:55;11.00;50.60
7902;DHT22;3996;49.674;10.716;2023-03-14T07:31:21;10.90;50.50
7902;DHT22;3996;49.674;10.716;2023-03-14T07:33:47;11.00;50.80
7902;DHT22;3996;49.674;10.716;2023-03-14T07:36:13;11.10;48.10
7902;DHT22;3996;49.674;10.716;2023-03-14T07:38:38;10.90;49.00
7902;DHT22;3996;49.674;10.716;2023-03-14T07:41:06;10.90;48.60
7902;DHT22;3996;49.674;10.716;2023-03-14T07:43:32;10.70;48.70
7902;DHT22;3996;49.674;10.716;2023-03-14T07:45:58;10.80;48.70
7902;DHT22;3996;49.674;10.716;2023-03-14T07:48:23;11.70;47.20
7902;DHT22;3996;49.674;10.716;2023-03-14T07:50:51;11.90;42.90
7902;DHT22;3996;49.674;10.716;2023-03-14T07:53:17;12.10;42.80
7902;DHT22;3996;49.674;10.716;2023-03-14T07:55:43;12.20;41.60
7902;DHT22;3996;49.674;10.716;2023-03-14T07:58:09;12.50;40.00
7902;DHT22;3996;49.674;10.716;2023-03-14T08:00:35;12.50;39.50
7902;DHT22;3996;49.674;10.716;2023-03-14T08:03:01;12.50;39.90
7902;DHT22;3996;49.674;10.716;2023-03-14T08:05:27;12.50;39.40
7902;DHT22;3996;49.674;10.716;2023-03-14T08:07:52;12.20;40.40
7902;DHT22;3996;49.674;10.716;2023-03-14T08:10:18;11.80;41.90
7902;DHT22;3996;49.674;10.716;2023-03-14T08:12:48;11.70;42.50
7902;DHT22;3996;49.674;10.716;2023-03-14T08:15:14;11.60;42.00
7902;DHT22;3996;49.674;10.716;2023-03-14T08:17:39;11.50;43.20
7902;DHT22;3996;49.674;10.716;2023-03-14T08:20:05;11.50;43.30
7902;DHT22;3996;49.674;10.716;2023-03-14T08:22:36;11.80;44.00
7902;DHT22;3996;49.674;10.716;2023-03-14T08:25:02;12.20;42.50
7902;DHT22;3996;49.674;10.716;2023-03-14T08:27:28;12.40;40.70
7902;DHT22;3996;49.674;10.716;2023-03-14T08:29:53;12.50;39.00
7902;DHT22;3996;49.674;10.716;2023-03-14T08:32:19;12.50;39.00
7902;DHT22;3996;49.674;10.716;2023-03-14T08:34:45;12.80;38.70
7902;DHT22;3996;49.674;10.716;2023-03-14T08:37:11;12.70;38.60
7902;DHT22;3996;49.674;10.716;2023-03-14T08:39:37;12.70;38.00
7902;DHT22;3996;49.674;10.716;2023-03-14T08:42:02;12.40;37.90
7902;DHT22;3996;49.674;10.716;2023-03-14T08:44:28;12.20;38.20
7902;DHT22;3996;49.674;10.716;2023-03-14T08:46:54;12.10;40.50
7902;DHT22;3996;49.674;10.716;2023-03-14T08:49:20;12.00;40.30
7902;DHT22;3996;49.674;10.716;2023-03-14T08:51:45;11.90;39.60
7902;DHT22;3996;49.674;10.716;2023-03-14T08:54:11;11.90;39.60
7902;DHT22;3996;49.674;10.716;2023-03-14T08:56:37;11.80;40.00
7902;DHT22;3996;49.674;10.716;2023-03-14T08:59:05;11.70;39.60
7902;DHT22;3996;49.674;10.716;2023-03-14T09:01:31;11.80;40.80
7902;DHT22;3996;49.674;10.716;2023-03-14T09:03:57;11.70;40.10
7902;DHT22;3996;49.674;10.716;2023-03-14T09:06:23;11.60;40.70
7902;DHT22;3996;49.674;10.716;2023-03-14T09:08:48;11.50;40.40
7902;DHT22;3996;49.674;10.716;2023-03-14T09:11:14;11.50;40.10
7902;DHT22;3996;49.674;10.716;2023-03-14T09:13:40;11.50;40.70
7902;DHT22;3996;49.674;10.716;2023-03-14T09:16:07;11.50;41.90
7902;DHT22;3996;49.674;10.716;2023-03-14T09:18:33;11.50;41.90
7902;DHT22;3996;49.674;10.716;2023-03-14T09:20:58;11.50;43.10
7902;DHT22;3996;49.674;10.716;2023-03-14T09:23:24;11.50;42.30
7902;DHT22;3996;49.674;10.716;2023-03-14T09:25:58;11.50;42.10
7902;DHT22;3996;49.674;10.716;2023-03-14T09:28:24;11.50;45.40
7902;DHT22;3996;49.674;10.716;2023-03-14T09:30:49;11.50;44.10
7902;DHT22;3996;49.674;10.716;2023-03-14T09:33:16;11.50;43.70
7902;DHT22;3996;49.674;10.716;2023-03-14T09:35:41;11.50;44.20
7902;DHT22;3996;49.674;10.716;2023-03-14T09:38:07;11.50;44.50
7902;DHT22;3996;49.674;10.716;2023-03-14T09:40:35;11.40;44.70
7902;DHT22;3996;49.674;10.716;2023-03-14T09:43:01;11.40;43.50
7902;DHT22;3996;49.674;10.716;2023-03-14T09:45:32;11.40;42.90
7902;DHT22;3996;49.674;10.716;2023-03-14T09:47:59;11.50;43.30
7902;DHT22;3996;49.674;10.716;2023-03-14T09:50:36;11.60;43.90
7902;DHT22;3996;49.674;10.716;2023-03-14T09:53:09;11.70;43.40
7902;DHT22;3996;49.674;10.716;2023-03-14T09:55:37;11.80;42.20
7902;DHT22;3996;49.674;10.716;2023-03-14T09:58:08;11.90;41.40
7902;DHT22;3996;49.674;10.716;2023-03-14T10:00:35;11.90;40.60
7902;DHT22;3996;49.674;10.716;2023-03-14T10:03:33;12.00;40.70
7902;DHT22;3996;49.674;10.716;2023-03-14T10:05:59;12.00;39.90
7902;DHT22;3996;49.674;10.716;2023-03-14T10:08:25;12.00;39.90
7902;DHT22;3996;49.674;10.716;2023-03-14T10:10:51;12.00;40.10
7902;DHT22;3996;49.674;10.716;2023-03-14T10:13:27;12.10;39.20
7902;DHT22;3996;49.674;10.716;2023-03-14T10:16:02;12.10;39.30
7902;DHT22;3996;49.674;10.716;2023-03-14T10:18:29;12.20;39.50
7902;DHT22;3996;49.674;10.716;2023-03-14T10:23:35;12.20;38.10
7902;DHT22;3996;49.674;10.716;2023-03-14T10:28:51;12.20;39.00
7902;DHT22;3996;49.674;10.716;2023-03-14T10:31:18;12.30;39.40
7902;DHT22;3996;49.674;10.716;2023-03-14T10:34:01;12.40;38.80
7902;DHT22;3996;49.674;10.716;2023-03-14T10:36:29;12.60;38.00
7902;DHT22;3996;49.674;10.716;2023-03-14T10:39:26;13.10;37.90
7902;DHT22;3996;49.674;10.716;2023-03-14T10:41:55;13.20;37.10
7902;DHT22;3996;49.674;10.716;2023-03-14T10:44:27;13.30;37.70
7902;DHT22;3996;49.674;10.716;2023-03-14T10:47:00;13.40;37.20
7902;DHT22;3996;49.674;10.716;2023-03-14T10:52:02;14.50;34.80
7902;DHT22;3996;49.674;10.716;2023-03-14T10:54:37;14.40;33.60
7902;DHT22;3996;49.674;10.716;2023-03-14T10:57:04;14.10;33.00
7902;DHT22;3996;49.674;10.716;2023-03-14T10:59:36;13.70;33.40
7902;DHT22;3996;49.674;10.716;2023-03-14T11:02:38;13.30;35.50
7902;DHT22;3996;49.674;10.716;2023-03-14T11:05:18;13.40;36.10
7902;DHT22;3996;49.674;10.716;2023-03-14T11:07:46;13.40;35.50
7902;DHT22;3996;49.674;10.716;2023-03-14T11:10:45;13.40;35.50
7902;DHT22;3996;49.674;10.716;2023-03-14T11:13:43;13.30;34.60
7902;DHT22;3996;49.674;10.716;2023-03-14T11:16:23;13.30;35.10
7902;DHT22;3996;49.674;10.716;2023-03-14T11:30:17;13.80;33.20
7902;DHT22;3996;49.674;10.716;2023-03-14T11:35:37;14.10;35.20
7902;DHT22;3996;49.674;10.716;2023-03-14T11:40:39;14.40;31.70
7902;DHT22;3996;49.674;10.716;2023-03-14T11:45:35;14.20;33.10
7902;DHT22;3996;49.674;10.716;2023-03-14T11:48:20;14.20;32.60
7902;DHT22;3996;49.674;10.716;2023-03-14T11:50:50;14.50;33.70
7902;DHT22;3996;49.674;10.716;2023-03-14T11:53:40;14.50;31.40
7902;DHT22;3996;49.674;10.716;2023-03-14T11:56:16;14.50;31.10
7902;DHT22;3996;49.674;10.716;2023-03-14T11:59:01;14.50;32.10
7902;DHT22;3996;49.674;10.716;2023-03-14T12:01:36;14.40;32.70
7902;DHT22;3996;49.674;10.716;2023-03-14T12:07:03;14.50;47.00
7902;DHT22;3996;49.674;10.716;2023-03-14T12:09:31;15.20;34.80
7902;DHT22;3996;49.674;10.716;2023-03-14T12:12:02;16.10;30.70
7902;DHT22;3996;49.674;10.716;2023-03-14T12:14:34;15.90;30.70
7902;DHT22;3996;49.674;10.716;2023-03-14T12:17:06;16.00;28.50
7902;DHT22;3996;49.674;10.716;2023-03-14T12:19:39;15.60;28.60
7902;DHT22;3996;49.674;10.716;2023-03-14T12:24:37;14.80;28.90
7902;DHT22;3996;49.674;10.716;2023-03-14T12:27:05;14.50;29.50
7902;DHT22;3996;49.674;10.716;2023-03-14T12:29:32;14.20;30.80
7902;DHT22;3996;49.674;10.716;2023-03-14T12:34:31;13.90;31.40
7902;DHT22;3996;49.674;10.716;2023-03-14T12:37:17;13.70;33.20
7902;DHT22;3996;49.674;10.716;2023-03-14T12:45:26;13.30;34.80
7902;DHT22;3996;49.674;10.716;2023-03-14T12:47:53;13.30;37.20
7902;DHT22;3996;49.674;10.716;2023-03-14T12:50:24;13.20;36.40
7902;DHT22;3996;49.674;10.716;2023-03-14T12:56:04;13.30;37.50
7902;DHT22;3996;49.674;10.716;2023-03-14T13:39:52;11.30;60.60
7902;DHT22;3996;49.674;10.716;2023-03-14T13:42:19;11.30;62.20
7902;DHT22;3996;49.674;10.716;2023-03-14T13:44:44;11.20;62.30
7902;DHT22;3996;49.674;10.716;2023-03-14T13:47:15;11.10;66.20
7902;DHT22;3996;49.674;10.716;2023-03-14T13:49:42;11.00;67.10
7902;DHT22;3996;49.674;10.716;2023-03-14T13:54:53;10.90;68.70
7902;DHT22;3996;49.674;10.716;2023-03-14T13:57:19;10.90;70.40
7902;DHT22;3996;49.674;10.716;2023-03-14T14:00:06;10.90;70.90
7902;DHT22;3996;49.674;10.716;2023-03-14T14:02:37;10.80;72.40
7902;DHT22;3996;49.674;10.716;2023-03-14T14:05:03;10.70;72.60
7902;DHT22;3996;49.674;10.716;2023-03-14T14:07:30;10.70;73.30
7902;DHT22;3996;49.674;10.716;2023-03-14T14:09:56;10.80;72.00
7902;DHT22;3996;49.674;10.716;2023-03-14T14:12:34;10.80;70.90
7902;DHT22;3996;49.674;10.716;2023-03-14T14:15:11;10.90;70.90
7902;DHT22;3996;49.674;10.716;2023-03-14T14:20:22;10.70;67.90
7902;DHT22;3996;49.674;10.716;2023-03-14T14:22:49;10.50;65.80
7902;DHT22;3996;49.674;10.716;2023-03-14T14:25:15;10.50;63.60
7902;DHT22;3996;49.674;10.716;2023-03-14T14:27:47;10.30;64.90
7902;DHT22;3996;49.674;10.716;2023-03-14T14:32:49;9.90;67.90
7902;DHT22;3996;49.674;10.716;2023-03-14T14:35:33;9.70;68.70
7902;DHT22;3996;49.674;10.716;2023-03-14T14:37:59;9.70;68.40
7902;DHT22;3996;49.674;10.716;2023-03-14T14:40:29;9.90;64.80
7902;DHT22;3996;49.674;10.716;2023-03-14T14:43:03;10.00;59.90
7902;DHT22;3996;49.674;10.716;2023-03-14T14:45:29;9.90;61.70
7902;DHT22;3996;49.674;10.716;2023-03-14T14:48:03;9.80;58.40
7902;DHT22;3996;49.674;10.716;2023-03-14T14:50:32;9.80;57.80
7902;DHT22;3996;49.674;10.716;2023-03-14T14:52:59;9.80;57.80
7902;DHT22;3996;49.674;10.716;2023-03-14T14:55:32;9.70;55.40
7902;DHT22;3996;49.674;10.716;2023-03-14T14:58:24;9.60;54.30
7902;DHT22;3996;49.674;10.716;2023-03-14T15:01:05;9.60;56.30
7902;DHT22;3996;49.674;10.716;2023-03-14T15:03:33;9.50;57.30
7902;DHT22;3996;49.674;10.716;2023-03-14T15:06:01;9.20;56.90
7902;DHT22;3996;49.674;10.716;2023-03-14T15:08:27;9.20;61.40
7902;DHT22;3996;49.674;10.716;2023-03-14T15:10:53;9.10;64.20
7902;DHT22;3996;49.674;10.716;2023-03-14T15:13:19;9.10;62.80
7902;DHT22;3996;49.674;10.716;2023-03-14T15:15:45;9.10;61.20
7902;DHT22;3996;49.674;10.716;2023-03-14T15:18:17;9.10;63.90
7902;DHT22;3996;49.674;10.716;2023-03-14T15:20:45;8.90;64.20
7902;DHT22;3996;49.674;10.716;2023-03-14T15:23:13;8.90;64.70
7902;DHT22;3996;49.674;10.716;2023-03-14T15:25:39;8.80;67.30
7902;DHT22;3996;49.674;10.716;2023-03-14T15:28:17;8.70;67.90
7902;DHT22;3996;49.674;10.716;2023-03-14T15:30:43;8.60;65.50
7902;DHT22;3996;49.674;10.716;2023-03-14T15:33:09;8.50;68.80
7902;DHT22;3996;49.674;10.716;2023-03-14T15:35:41;8.40;64.10
7902;DHT22;3996;49.674;10.716;2023-03-14T15:38:11;8.40;65.30
7902;DHT22;3996;49.674;10.716;2023-03-14T15:40:37;8.40;66.00
7902;DHT22;3996;49.674;10.716;2023-03-14T15:43:03;8.40;68.30
7902;DHT22;3996;49.674;10.716;2023-03-14T15:45:29;8.50;67.30
7902;DHT22;3996;49.674;10.716;2023-03-14T15:47:55;8.50;67.50
7902;DHT22;3996;49.674;10.716;2023-03-14T15:50:21;8.60;66.40
7902;DHT22;3996;49.674;10.716;2023-03-14T15:52:46;8.50;68.10
7902;DHT22;3996;49.674;10.716;2023-03-14T15:55:12;8.40;65.80
7902;DHT22;3996;49.674;10.716;2023-03-14T15:57:43;8.20;66.00
7902;DHT22;3996;49.674;10.716;2023-03-14T16:00:12;8.20;67.50
7902;DHT22;3996;49.674;10.716;2023-03-14T16:02:40;8.10;69.60
7902;DHT22;3996;49.674;10.716;2023-03-14T16:05:12;8.10;68.80
7902;DHT22;3996;49.674;10.716;2023-03-14T16:07:38;7.90;66.90
7902;DHT22;3996;49.674;10.716;2023-03-14T16:10:05;8.00;62.60
7902;DHT22;3996;49.674;10.716;2023-03-14T16:12:31;8.10;64.30
7902;DHT22;3996;49.674;10.716;2023-03-14T16:14:57;8.00;64.90
7902;DHT22;3996;49.674;10.716;2023-03-14T16:17:23;7.90;64.30
7902;DHT22;3996;49.674;10.716;2023-03-14T16:19:49;7.90;65.60
7902;DHT22;3996;49.674;10.716;2023-03-14T16:22:14;7.90;65.80
7902;DHT22;3996;49.674;10.716;2023-03-14T16:24:40;8.00;63.10
7902;DHT22;3996;49.674;10.716;2023-03-14T16:27:05;8.10;63.00
7902;DHT22;3996;49.674;10.716;2023-03-14T16:29:31;8.00;64.60
7902;DHT22;3996;49.674;10.716;2023-03-14T16:31:57;8.00;63.90
7902;DHT22;3996;49.674;10.716;2023-03-14T16:34:22;8.10;62.50
7902;DHT22;3996;49.674;10.716;2023-03-14T16:36:48;8.20;61.80
7902;DHT22;3996;49.674;10.716;2023-03-14T16:39:17;8.10;61.90
7902;DHT22;3996;49.674;10.716;2023-03-14T16:41:43;8.10;62.30
7902;DHT22;3996;49.674;10.716;2023-03-14T16:44:08;8.10;63.00
7902;DHT22;3996;49.674;10.716;2023-03-14T16:46:34;8.10;65.10
7902;DHT22;3996;49.674;10.716;2023-03-14T16:49:00;9.10;60.90
7902;DHT22;3996;49.674;10.716;2023-03-14T16:51:26;8.90;51.00
7902;DHT22;3996;49.674;10.716;2023-03-14T16:53:52;8.20;56.50
7902;DHT22;3996;49.674;10.716;2023-03-14T16:56:17;7.60;60.70
7902;DHT22;3996;49.674;10.716;2023-03-14T16:58:43;6.80;57.20
7902;DHT22;3996;49.674;10.716;2023-03-14T17:01:11;6.10;64.20
7902;DHT22;3996;49.674;10.716;2023-03-14T17:03:48;6.10;67.60
7902;DHT22;3996;49.674;10.716;2023-03-14T17:06:19;6.00;69.30
7902;DHT22;3996;49.674;10.716;2023-03-14T17:08:45;6.00;69.80
7902;DHT22;3996;49.674;10.716;2023-03-14T17:11:11;6.10;69.40
7902;DHT22;3996;49.674;10.716;2023-03-14T17:13:38;6.10;70.20
7902;DHT22;3996;49.674;10.716;2023-03-14T17:16:04;6.10;71.20
7902;DHT22;3996;49.674;10.716;2023-03-14T17:18:30;6.40;67.60
7902;DHT22;3996;49.674;10.716;2023-03-14T17:20:56;6.40;69.80
7902;DHT22;3996;49.674;10.716;2023-03-14T17:23:23;6.50;68.20
7902;DHT22;3996;49.674;10.716;2023-03-14T17:25:50;6.40;69.20
7902;DHT22;3996;49.674;10.716;2023-03-14T17:28:20;6.30;68.90
7902;DHT22;3996;49.674;10.716;2023-03-14T17:30:47;6.20;70.50
7902;DHT22;3996;49.674;10.716;2023-03-14T17:33:13;6.20;72.60